Terminal Aerodrome Forecast
Issued by NWS

Home | Current Version | Previous Version | Graphics & Text | Print | Product List | Glossary On
Versions: 1 2 3 4 5 6 7 8 9 10 11 12 13 14 15
000
FTUS43 KMPX 301100
TAFRWF
TAF
KRWF 301138Z 3012/3112 32009KT 3SM BR OVC003
     FM301600 32005KT P6SM BKN010 OVC020
     FM301800 32004KT P6SM BKN020 OVC040
     FM302100 VRB03KT P6SM FEW020 BKN050
     FM310000 15003KT P6SM FEW250
     FM310800 16009KT P6SM BKN200=

USA.gov is the U.S. government's official web portal to all federal, state and local government web resources and services.